Station Historical Data
Daily Summary for January 22, 2017 Units:  English    Metric   Both
Next Day »
Daily Weekly Monthly Yearly Custom
  High: Low: Average:
Temperature: 42.3 °F 33.0 °F 38 °F
Dew Point: 41.2 °F 31.7 °F 36.9 °F
Humidity: 96% 94% 96%
Wind Speed: 28.0mph 0.0mph 7.2mph
Wind Gust: 41.0mph - -
Wind- - South
Pressure: 29.90 in 29.69 in -
Precipitation: 1.18 in    
Historical Graphs
 
 
Tabular Data for January 22, 2017
Time Temperature Dew Point Pressure Wind Wind Speed Wind Gust Humidity Rainfall Rate (Hourly) solar Conditions
00:04 36.2 °F 35.2 °F 29.90 in SE 6.0 mph 23.0 mph 96% 0.07 in 0.00 W/m2
00:09 36.1 °F 35.1 °F 29.89 in Calm   15.0 mph 96% 0.07 in 0.00 W/m2
00:14 36.0 °F 35.0 °F 29.89 in SE 12.0 mph 20.0 mph 96% 0.06 in 0.00 W/m2
00:19 36.0 °F 35.0 °F 29.88 in SE 9.0 mph 21.0 mph 96% 0.05 in 0.00 W/m2
00:24 35.9 °F 34.9 °F 29.88 in ESE 8.0 mph 19.0 mph 96% 0.05 in 0.00 W/m2
00:29 35.8 °F 34.8 °F 29.88 in SSE 13.0 mph 20.0 mph 96% 0.05 in 0.00 W/m2
00:34 35.7 °F 34.7 °F 29.88 in SE 7.0 mph 22.0 mph 96% 0.00 in 0.00 W/m2
00:39 35.7 °F 34.7 °F 29.87 in SSE 8.0 mph 20.0 mph 96% 0.00 in 0.00 W/m2
00:44 35.6 °F 34.6 °F 29.86 in SE 9.0 mph 19.0 mph 96% 0.00 in 0.00 W/m2
00:49 35.7 °F 34.7 °F 29.86 in SSE 19.0 mph 22.0 mph 96% 0.06 in 0.00 W/m2
00:54 35.7 °F 34.7 °F 29.85 in South 18.0 mph 24.0 mph 96% 0.06 in 0.00 W/m2
00:59 35.8 °F 34.8 °F 29.84 in SE 17.0 mph 21.0 mph 96% 0.06 in 0.00 W/m2
01:04 35.8 °F 34.8 °F 29.84 in SSE 15.0 mph 27.0 mph 96% 0.06 in 0.00 W/m2
01:09 35.9 °F 34.9 °F 29.83 in SE 7.0 mph 17.0 mph 96% 0.04 in 0.00 W/m2
01:14 36.0 °F 35.0 °F 29.83 in South 16.0 mph 24.0 mph 96% 0.04 in 0.00 W/m2
01:19 36.1 °F 35.1 °F 29.83 in ESE 6.0 mph 24.0 mph 96% 0.04 in 0.00 W/m2
01:24 36.2 °F 35.2 °F 29.82 in ESE 2.0 mph 23.0 mph 96% 0.04 in 0.00 W/m2
01:30 36.2 °F 35.2 °F 29.82 in SE 14.0 mph 20.0 mph 96% 0.00 in 0.00 W/m2
01:35 36.4 °F 35.4 °F 29.81 in SE 8.0 mph 19.0 mph 96% 0.00 in 0.00 W/m2
01:40 36.5 °F 35.5 °F 29.81 in SSE 10.0 mph 20.0 mph 96% 0.00 in 0.00 W/m2
01:45 36.6 °F 35.6 °F 29.82 in SSE 14.0 mph 22.0 mph 96% 0.00 in 0.00 W/m2
01:50 36.7 °F 35.7 °F 29.81 in SE 15.0 mph 26.0 mph 96% 0.06 in 0.00 W/m2
01:55 36.8 °F 35.8 °F 29.81 in SSE 14.0 mph 23.0 mph 96% 0.06 in 0.00 W/m2
02:00 36.9 °F 35.9 °F 29.80 in SSE 7.0 mph 20.0 mph 96% 0.06 in 0.00 W/m2
02:05 37.0 °F 36.0 °F 29.81 in SE 19.0 mph 26.0 mph 96% 0.04 in 0.00 W/m2
02:10 37.1 °F 36.1 °F 29.80 in South 16.0 mph 26.0 mph 96% 0.00 in 0.00 W/m2
02:15 37.2 °F 36.2 °F 29.80 in SSE 14.0 mph 22.0 mph 96% 0.00 in 0.00 W/m2
02:20 37.3 °F 36.3 °F 29.79 in SE 20.0 mph 32.0 mph 96% 0.00 in 0.00 W/m2
02:25 37.4 °F 36.4 °F 29.79 in SSE 15.0 mph 21.0 mph 96% 0.00 in 0.00 W/m2
02:30 37.4 °F 36.4 °F 29.79 in SE 9.0 mph 23.0 mph 96% 0.00 in 0.00 W/m2
02:35 37.5 °F 36.5 °F 29.78 in SE 17.0 mph 29.0 mph 96% 0.00 in 0.00 W/m2
02:40 37.6 °F 36.6 °F 29.78 in SSE 18.0 mph 30.0 mph 96% 0.00 in 0.00 W/m2
02:45 37.7 °F 36.7 °F 29.77 in SSE 22.0 mph 31.0 mph 96% 0.04 in 0.00 W/m2
02:50 37.7 °F 36.7 °F 29.77 in South 15.0 mph 24.0 mph 96% 0.04 in 0.00 W/m2
02:55 37.8 °F 36.8 °F 29.76 in SE 8.0 mph 25.0 mph 96% 0.08 in 0.00 W/m2
03:00 37.8 °F 36.8 °F 29.75 in SE 22.0 mph 41.0 mph 96% 0.06 in 0.00 W/m2
03:05 37.9 °F 36.9 °F 29.75 in SE 27.0 mph 28.0 mph 96% 0.04 in 0.00 W/m2
03:10 38.0 °F 37.0 °F 29.75 in SSE 10.0 mph 28.0 mph 96% 0.00 in 0.00 W/m2
03:15 38.1 °F 37.1 °F 29.75 in SSE 16.0 mph 27.0 mph 96% 0.00 in 0.00 W/m2
03:20 38.2 °F 37.2 °F 29.74 in SE 10.0 mph 26.0 mph 96% 0.00 in 0.00 W/m2
03:25 38.3 °F 37.3 °F 29.75 in SSE 14.0 mph 20.0 mph 96% 0.00 in 0.00 W/m2
03:30 38.3 °F 37.3 °F 29.74 in SSE 11.0 mph 26.0 mph 96% 0.16 in 0.00 W/m2
03:35 38.4 °F 37.4 °F 29.74 in South 19.0 mph 26.0 mph 96% 0.10 in 0.00 W/m2
03:40 38.6 °F 37.6 °F 29.73 in SSE 18.0 mph 24.0 mph 96% 0.06 in 0.00 W/m2
03:45 38.7 °F 37.7 °F 29.72 in SSE 10.0 mph 25.0 mph 96% 0.04 in 0.00 W/m2
03:50 38.8 °F 37.8 °F 29.72 in SSE 22.0 mph 29.0 mph 96% 0.00 in 0.00 W/m2
03:55 39.0 °F 38.0 °F 29.73 in SSE 11.0 mph 25.0 mph 96% 0.00 in 0.00 W/m2
04:00 39.1 °F 38.1 °F 29.72 in SSE 15.0 mph 27.0 mph 96% 0.00 in 0.00 W/m2
04:05 39.2 °F 38.2 °F 29.71 in SSE 19.0 mph 29.0 mph 96% 0.00 in 0.00 W/m2
04:10 39.3 °F 38.3 °F 29.72 in SE 13.0 mph 20.0 mph 96% 0.00 in 0.00 W/m2
04:15 39.5 °F 38.5 °F 29.72 in SSE 17.0 mph 29.0 mph 96% 0.00 in 0.00 W/m2
04:20 39.5 °F 38.5 °F 29.72 in South 17.0 mph 23.0 mph 96% 0.00 in 0.00 W/m2
04:25 39.5 °F 38.5 °F 29.71 in SSE 10.0 mph 27.0 mph 96% 0.00 in 0.00 W/m2
04:30 39.6 °F 38.6 °F 29.72 in SSW 20.0 mph 28.0 mph 96% 0.00 in 0.00 W/m2
04:35 39.7 °F 38.7 °F 29.72 in SSW 13.0 mph 20.0 mph 96% 0.00 in 0.00 W/m2
04:40 39.8 °F 38.8 °F 29.71 in South 7.0 mph 26.0 mph 96% 0.00 in 0.00 W/m2
04:45 39.8 °F 38.8 °F 29.72 in SSE 10.0 mph 28.0 mph 96% 0.00 in 0.00 W/m2
04:50 39.9 °F 38.8 °F 29.72 in SSW 10.0 mph 26.0 mph 96% 0.00 in 0.00 W/m2
04:56 40.0 °F 39.0 °F 29.71 in SSE 6.0 mph 19.0 mph 96% 0.00 in 0.00 W/m2
05:01 40.0 °F 39.0 °F 29.72 in SSE 19.0 mph 27.0 mph 96% 0.00 in 0.00 W/m2
05:06 40.1 °F 39.0 °F 29.71 in SSE 13.0 mph 30.0 mph 96% 0.00 in 0.00 W/m2
05:11 40.2 °F 39.2 °F 29.72 in South 8.0 mph 32.0 mph 96% 0.00 in 0.00 W/m2
05:16 40.2 °F 39.2 °F 29.72 in South 7.0 mph 30.0 mph 96% 0.00 in 0.00 W/m2
05:21 40.3 °F 39.2 °F 29.72 in SSE 11.0 mph 27.0 mph 96% 0.00 in 0.00 W/m2
05:26 40.3 °F 39.2 °F 29.72 in SSW 11.0 mph 21.0 mph 96% 0.00 in 0.00 W/m2
05:31 40.3 °F 39.2 °F 29.72 in South 22.0 mph 29.0 mph 96% 0.00 in 0.00 W/m2
05:36 40.3 °F 39.2 °F 29.72 in South 28.0 mph 36.0 mph 96% 0.00 in 0.00 W/m2
05:41 40.3 °F 39.2 °F 29.72 in South 16.0 mph 25.0 mph 96% 0.00 in 0.00 W/m2
05:46 40.4 °F 39.3 °F 29.73 in SSW 16.0 mph 35.0 mph 96% 0.00 in 0.00 W/m2
05:51 40.4 °F 39.3 °F 29.72 in South 17.0 mph 24.0 mph 96% 0.00 in 0.00 W/m2
05:56 40.5 °F 39.5 °F 29.73 in SSE 21.0 mph 29.0 mph 96% 0.00 in 0.00 W/m2
06:01 40.4 °F 39.3 °F 29.73 in South 26.0 mph 34.0 mph 96% 0.00 in 0.00 W/m2
06:06 40.5 °F 39.5 °F 29.72 in SSE 17.0 mph 30.0 mph 96% 0.00 in 0.00 W/m2
06:11 40.5 °F 39.5 °F 29.73 in SSE 11.0 mph 14.0 mph 96% 0.00 in 0.00 W/m2
06:16 40.5 °F 39.5 °F 29.73 in SSW 18.0 mph 34.0 mph 96% 0.00 in 0.00 W/m2
06:21 40.5 °F 39.5 °F 29.74 in SSW 4.0 mph 24.0 mph 96% 0.00 in 0.00 W/m2
06:26 40.5 °F 39.5 °F 29.74 in SSE 16.0 mph 32.0 mph 96% 0.00 in 0.00 W/m2
06:31 40.5 °F 39.5 °F 29.73 in South 18.0 mph 18.0 mph 96% 0.00 in 0.00 W/m2
06:36 40.6 °F 39.5 °F 29.74 in SSE 21.0 mph 28.0 mph 96% 0.00 in 0.00 W/m2
06:41 40.5 °F 39.5 °F 29.74 in SSE 12.0 mph 14.0 mph 96% 0.00 in 0.00 W/m2
06:46 40.5 °F 39.5 °F 29.75 in SE 9.0 mph 27.0 mph 96% 0.00 in 0.00 W/m2
06:51 40.4 °F 39.3 °F 29.74 in South 24.0 mph 24.0 mph 96% 0.00 in 0.00 W/m2
06:56 40.4 °F 39.3 °F 29.75 in South 15.0 mph 17.0 mph 96% 0.00 in 0.00 W/m2
07:01 40.4 °F 39.3 °F 29.75 in SSW 9.0 mph 9.0 mph 96% 0.00 in 0.00 W/m2
07:06 40.4 °F 39.3 °F 29.76 in SW 9.0 mph 9.0 mph 96% 0.00 in 0.00 W/m2
07:11 40.4 °F 39.3 °F 29.76 in SSW 18.0 mph 18.0 mph 96% 0.00 in 0.00 W/m2
07:16 40.4 °F 39.3 °F 29.75 in SSE 12.0 mph 15.0 mph 96% 0.00 in 0.00 W/m2
07:21 40.3 °F 39.2 °F 29.76 in SSE 18.0 mph 19.0 mph 96% 0.00 in 0.00 W/m2
07:26 40.3 °F 39.2 °F 29.75 in SSE 20.0 mph 24.0 mph 96% 0.07 in 0.00 W/m2
07:31 40.3 °F 39.2 °F 29.76 in South 10.0 mph 22.0 mph 96% 0.07 in 0.00 W/m2
07:36 40.3 °F 39.2 °F 29.76 in South 17.0 mph 17.0 mph 96% 0.08 in 0.00 W/m2
07:41 40.3 °F 39.2 °F 29.76 in SSE 12.0 mph 24.0 mph 96% 0.07 in 0.00 W/m2
07:46 40.3 °F 39.2 °F 29.77 in SSW 18.0 mph 24.0 mph 96% 0.05 in 0.00 W/m2
07:51 40.4 °F 39.3 °F 29.77 in SW 14.0 mph 24.0 mph 96% 0.00 in 0.00 W/m2
07:56 40.4 °F 39.3 °F 29.77 in South 6.0 mph 10.0 mph 96% 0.00 in 0.00 W/m2
08:01 40.4 °F 39.3 °F 29.78 in SSW 10.0 mph 17.0 mph 96% 0.00 in 0.00 W/m2
08:06 40.4 °F 39.3 °F 29.78 in SSE 13.0 mph 26.0 mph 96% 0.04 in 7.00 W/m2
08:11 40.4 °F 39.3 °F 29.78 in SSW 13.0 mph 13.0 mph 96% 0.04 in 7.00 W/m2
08:16 40.3 °F 39.2 °F 29.78 in WSW 4.0 mph 11.0 mph 96% 0.07 in 5.00 W/m2
08:21 40.3 °F 39.2 °F 29.79 in SSW 17.0 mph 21.0 mph 96% 0.36 in 5.00 W/m2
08:26 40.2 °F 39.2 °F 29.80 in SW 11.0 mph 13.0 mph 96% 0.16 in 0.00 W/m2
08:31 40.3 °F 39.2 °F 29.80 in SSW 1.0 mph 11.0 mph 96% 0.33 in 0.00 W/m2
08:36 40.3 °F 39.2 °F 29.81 in South 2.0 mph 3.0 mph 96% 0.24 in 0.00 W/m2
08:41 40.3 °F 39.2 °F 29.81 in SW 3.0 mph 14.0 mph 96% 0.22 in 7.00 W/m2
08:46 40.3 °F 39.2 °F 29.81 in Calm   11.0 mph 96% 0.16 in 18.00 W/m2
08:51 40.4 °F 39.3 °F 29.82 in WSW 13.0 mph 19.0 mph 96% 0.16 in 39.00 W/m2
08:56 40.4 °F 39.3 °F 29.82 in SSW 9.0 mph 11.0 mph 96% 0.16 in 26.00 W/m2
09:01 40.5 °F 39.5 °F 29.82 in SW 8.0 mph 12.0 mph 96% 0.18 in 32.00 W/m2
09:07 40.5 °F 39.5 °F 29.83 in South 7.0 mph 23.0 mph 96% 0.14 in 23.00 W/m2
09:12 40.5 °F 39.5 °F 29.83 in SW 16.0 mph 23.0 mph 96% 0.07 in 42.00 W/m2
09:17 40.5 °F 39.5 °F 29.83 in SSW 19.0 mph 19.0 mph 96% 0.05 in 39.00 W/m2
09:22 40.5 °F 39.5 °F 29.83 in SW 15.0 mph 20.0 mph 96% 0.05 in 30.00 W/m2
09:27 40.5 °F 39.5 °F 29.83 in South 21.0 mph 21.0 mph 96% 0.05 in 37.00 W/m2
09:32 40.5 °F 39.5 °F 29.83 in SSW 8.0 mph 25.0 mph 96% 0.00 in 42.00 W/m2
09:37 40.5 °F 39.5 °F 29.84 in South 13.0 mph 19.0 mph 96% 0.00 in 25.00 W/m2
09:42 40.5 °F 39.5 °F 29.85 in SW 12.0 mph 17.0 mph 96% 0.00 in 30.00 W/m2
09:47 40.5 °F 39.5 °F 29.85 in SSW 11.0 mph 20.0 mph 96% 0.09 in 47.00 W/m2
09:52 40.5 °F 39.5 °F 29.84 in South 18.0 mph 21.0 mph 96% 0.10 in 56.00 W/m2
09:57 40.5 °F 39.5 °F 29.84 in SSW 12.0 mph 12.0 mph 96% 0.07 in 69.00 W/m2
10:02 40.6 °F 39.5 °F 29.85 in SW 17.0 mph 18.0 mph 96% 0.04 in 100.00 W/m2
10:07 40.6 °F 39.5 °F 29.85 in South 4.0 mph 16.0 mph 96% 0.00 in 58.00 W/m2
10:12 40.6 °F 39.5 °F 29.85 in SSW 5.0 mph 8.0 mph 96% 0.00 in 58.00 W/m2
10:17 40.7 °F 39.7 °F 29.85 in SSW 11.0 mph 22.0 mph 96% 0.00 in 67.00 W/m2
10:22 40.7 °F 39.7 °F 29.85 in SSW 4.0 mph 16.0 mph 96% 0.00 in 56.00 W/m2
10:27 40.7 °F 39.7 °F 29.85 in SSW 11.0 mph 20.0 mph 96% 0.00 in 62.00 W/m2
10:32 40.7 °F 39.7 °F 29.84 in SSE 10.0 mph 20.0 mph 96% 0.00 in 54.00 W/m2
10:37 40.7 °F 39.7 °F 29.85 in SSW 16.0 mph 16.0 mph 96% 0.00 in 72.00 W/m2
10:42 40.8 °F 39.8 °F 29.85 in SSW 11.0 mph 23.0 mph 96% 0.00 in 109.00 W/m2
10:47 40.8 °F 39.8 °F 29.85 in SSW 19.0 mph 24.0 mph 96% 0.00 in 98.00 W/m2
10:52 40.8 °F 39.8 °F 29.85 in SW 15.0 mph 24.0 mph 96% 0.00 in 70.00 W/m2
10:57 40.9 °F 39.8 °F 29.85 in South 3.0 mph 11.0 mph 96% 0.00 in 76.00 W/m2
11:02 40.9 °F 39.8 °F 29.85 in SSW 18.0 mph 21.0 mph 96% 0.00 in 95.00 W/m2
11:07 41.0 °F 40.0 °F 29.84 in South 15.0 mph 17.0 mph 96% 0.00 in 54.00 W/m2
11:12 41.0 °F 40.0 °F 29.85 in SW 4.0 mph 16.0 mph 96% 0.00 in 72.00 W/m2
11:17 41.0 °F 40.0 °F 29.84 in WSW 6.0 mph 13.0 mph 96% 0.00 in 118.00 W/m2
11:22 41.0 °F 40.0 °F 29.85 in South 10.0 mph 12.0 mph 96% 0.00 in 98.00 W/m2
11:27 41.1 °F 40.0 °F 29.84 in SW 13.0 mph 14.0 mph 96% 0.00 in 90.00 W/m2
11:32 41.1 °F 40.0 °F 29.83 in South 6.0 mph 19.0 mph 96% 0.00 in 142.00 W/m2
11:37 41.1 °F 40.0 °F 29.84 in SSE 7.0 mph 15.0 mph 96% 0.00 in 142.00 W/m2
11:42 41.2 °F 40.2 °F 29.83 in South 6.0 mph 11.0 mph 96% 0.00 in 148.00 W/m2
11:47 41.4 °F 40.3 °F 29.83 in South 6.0 mph 15.0 mph 96% 0.00 in 125.00 W/m2
11:52 41.4 °F 40.3 °F 29.83 in SSE 13.0 mph 15.0 mph 96% 0.00 in 84.00 W/m2
11:57 41.4 °F 40.3 °F 29.82 in South 11.0 mph 16.0 mph 96% 0.00 in 72.00 W/m2
12:02 41.5 °F 40.5 °F 29.82 in Calm   14.0 mph 96% 0.00 in 142.00 W/m2
12:07 41.5 °F 40.5 °F 29.82 in SW 7.0 mph 12.0 mph 96% 0.00 in 153.00 W/m2
12:13 41.5 °F 40.5 °F 29.81 in SW 2.0 mph 11.0 mph 96% 0.00 in 130.00 W/m2
12:18 41.5 °F 40.5 °F 29.81 in SSE 7.0 mph 11.0 mph 96% 0.00 in 146.00 W/m2
12:23 41.5 °F 40.5 °F 29.80 in SSW 8.0 mph 15.0 mph 96% 0.00 in 292.00 W/m2
12:28 41.6 °F 40.5 °F 29.80 in South 6.0 mph 7.0 mph 96% 0.00 in 149.00 W/m2
12:33 41.6 °F 40.5 °F 29.80 in Calm     96% 0.00 in 158.00 W/m2
12:38 41.6 °F 40.5 °F 29.79 in South 10.0 mph 11.0 mph 96% 0.00 in 348.00 W/m2
12:43 41.7 °F 40.7 °F 29.79 in South 9.0 mph 10.0 mph 96% 0.00 in 279.00 W/m2
12:48 41.8 °F 40.8 °F 29.79 in SW 15.0 mph 15.0 mph 96% 0.00 in 415.00 W/m2
12:53 41.9 °F 40.8 °F 29.79 in South 5.0 mph 11.0 mph 96% 0.00 in 603.00 W/m2
12:58 42.1 °F 41.0 °F 29.78 in SW 7.0 mph 14.0 mph 96% 0.00 in 339.00 W/m2
13:03 42.2 °F 41.1 °F 29.78 in SSE 10.0 mph 12.0 mph 96% 0.00 in 267.00 W/m2
13:08 42.2 °F 41.1 °F 29.78 in SSW 7.0 mph 9.0 mph 96% 0.00 in 350.00 W/m2
13:13 42.3 °F 41.2 °F 29.77 in SSW 3.0 mph 13.0 mph 96% 0.00 in 207.00 W/m2
13:18 42.3 °F 41.2 °F 29.77 in Calm   8.0 mph 96% 0.00 in 628.00 W/m2
13:23 42.2 °F 41.1 °F 29.77 in SSW 3.0 mph 10.0 mph 96% 0.00 in 295.00 W/m2
13:28 42.2 °F 41.1 °F 29.76 in SW 9.0 mph 12.0 mph 96% 0.00 in 673.00 W/m2
13:33 42.1 °F 41.0 °F 29.76 in WSW 6.0 mph 8.0 mph 96% 0.00 in 274.00 W/m2
13:38 42.0 °F 40.9 °F 29.76 in Calm   7.0 mph 96% 0.00 in 272.00 W/m2
13:43 42.0 °F 40.9 °F 29.76 in Calm   8.0 mph 96% 0.00 in 200.00 W/m2
13:48 41.9 °F 40.8 °F 29.75 in SSE 1.0 mph 11.0 mph 96% 0.00 in 244.00 W/m2
13:53 41.8 °F 40.8 °F 29.75 in Calm   13.0 mph 96% 0.00 in 647.00 W/m2
13:58 41.8 °F 40.8 °F 29.75 in WSW 6.0 mph 8.0 mph 96% 0.00 in 309.00 W/m2
14:03 41.9 °F 40.8 °F 29.75 in WSW 6.0 mph 12.0 mph 96% 0.00 in 153.00 W/m2
14:08 41.8 °F 40.8 °F 29.75 in SSW 6.0 mph 10.0 mph 96% 0.00 in 323.00 W/m2
14:13 41.7 °F 40.7 °F 29.75 in Calm   10.0 mph 96% 0.00 in 401.00 W/m2
14:18 41.8 °F 40.8 °F 29.74 in WSW 2.0 mph 8.0 mph 96% 0.00 in 193.00 W/m2
14:23 41.8 °F 40.8 °F 29.74 in SW 5.0 mph 10.0 mph 96% 0.00 in 410.00 W/m2
14:28 41.8 °F 40.8 °F 29.73 in SW 10.0 mph 10.0 mph 96% 0.00 in 417.00 W/m2
14:33 41.8 °F 40.8 °F 29.73 in WSW 1.0 mph 1.0 mph 96% 0.00 in 408.00 W/m2
14:38 41.9 °F 40.8 °F 29.73 in Calm   1.0 mph 96% 0.00 in 169.00 W/m2
14:43 41.8 °F 40.8 °F 29.73 in Calm   3.0 mph 96% 0.00 in 176.00 W/m2
14:48 41.8 °F 40.8 °F 29.73 in Calm   9.0 mph 96% 0.00 in 118.00 W/m2
14:53 41.8 °F 40.5 °F 29.72 in Calm     95% 0.00 in 121.00 W/m2
14:58 41.8 °F 40.5 °F 29.72 in Calm     95% 0.00 in 70.00 W/m2
15:03 41.8 °F 40.8 °F 29.72 in Calm     96% 0.00 in 60.00 W/m2
15:08 41.8 °F 40.5 °F 29.71 in Calm   1.0 mph 95% 0.00 in 84.00 W/m2
15:13 41.7 °F 40.4 °F 29.71 in Calm     95% 0.00 in 72.00 W/m2
15:18 41.7 °F 40.4 °F 29.71 in WSW 1.0 mph 1.0 mph 95% 0.00 in 105.00 W/m2
15:23 41.7 °F 40.4 °F 29.71 in Calm     95% 0.00 in 81.00 W/m2
15:28 41.6 °F 40.3 °F 29.71 in Calm   1.0 mph 95% 0.00 in 47.00 W/m2
15:33 41.5 °F 40.2 °F 29.70 in Calm     95% 0.00 in 56.00 W/m2
15:38 41.5 °F 40.2 °F 29.70 in Calm     95% 0.00 in 18.00 W/m2
15:43 41.5 °F 40.2 °F 29.70 in Calm   1.0 mph 95% 0.00 in 19.00 W/m2
15:48 41.5 °F 40.2 °F 29.70 in Calm     95% 0.00 in 12.00 W/m2
15:53 41.4 °F 40.1 °F 29.69 in Calm   10.0 mph 95% 0.00 in 7.00 W/m2
15:58 41.3 °F 40.0 °F 29.69 in West 15.0 mph 16.0 mph 95% 0.00 in 5.00 W/m2
16:03 41.0 °F 39.7 °F 29.69 in Calm   11.0 mph 95% 0.00 in 5.00 W/m2
16:08 40.6 °F 39.3 °F 29.69 in Calm   17.0 mph 95% 0.00 in 0.00 W/m2
16:13 40.3 °F 38.7 °F 29.70 in SW 10.0 mph 19.0 mph 94% 0.21 in 0.00 W/m2
16:18 39.6 °F 38.0 °F 29.70 in SSW 13.0 mph 18.0 mph 94% 0.44 in 0.00 W/m2
16:23 39.1 °F 37.5 °F 29.70 in SSW 5.0 mph 14.0 mph 94% 0.31 in 0.00 W/m2
16:28 38.8 °F 37.2 °F 29.70 in South 13.0 mph 18.0 mph 94% 0.41 in 0.00 W/m2
16:29 38.7 °F 37.1 °F 29.70 in SSE 9.0 mph 18.0 mph 94% 0.41 in 0.00 W/m2
16:34 38.4 °F 36.8 °F 29.71 in SSE 9.0 mph 12.0 mph 94% 0.34 in 0.00 W/m2
16:39 38.1 °F 36.5 °F 29.71 in South 8.0 mph 15.0 mph 94% 0.29 in 0.00 W/m2
16:44 37.8 °F 36.5 °F 29.71 in South 7.0 mph 12.0 mph 95% 0.22 in 0.00 W/m2
16:49 37.5 °F 35.9 °F 29.71 in SSE 2.0 mph 13.0 mph 94% 0.20 in 5.00 W/m2
16:54 37.2 °F 35.9 °F 29.71 in SSE 9.0 mph 11.0 mph 95% 0.10 in 5.00 W/m2
16:59 37.0 °F 35.7 °F 29.71 in SSE 5.0 mph 11.0 mph 95% 0.14 in 0.00 W/m2
17:04 36.9 °F 35.6 °F 29.71 in Calm     95% 0.08 in 0.00 W/m2
17:09 36.7 °F 35.4 °F 29.71 in Calm     95% 0.05 in 0.00 W/m2
17:14 36.6 °F 35.3 °F 29.71 in Calm     95% 0.05 in 0.00 W/m2
17:19 36.5 °F 35.2 °F 29.71 in Calm   1.0 mph 95% 0.09 in 0.00 W/m2
17:24 36.4 °F 35.1 °F 29.72 in SE 6.0 mph 8.0 mph 95% 0.20 in 0.00 W/m2
17:29 36.3 °F 35.0 °F 29.72 in Calm   1.0 mph 95% 0.10 in 0.00 W/m2
17:34 35.9 °F 34.6 °F 29.72 in Calm     95% 0.05 in 0.00 W/m2
17:39 35.5 °F 34.2 °F 29.71 in Calm     95% 0.04 in 0.00 W/m2
17:44 35.1 °F 33.5 °F 29.70 in Calm     94% 0.00 in 0.00 W/m2
17:49 34.8 °F 33.5 °F 29.70 in Calm     95% 0.00 in 0.00 W/m2
17:54 34.6 °F 33.0 °F 29.70 in Calm     94% 0.00 in 0.00 W/m2
17:59 34.4 °F 33.1 °F 29.70 in Calm     95% 0.00 in 0.00 W/m2
18:04 34.2 °F 32.9 °F 29.70 in Calm     95% 0.00 in 0.00 W/m2
18:09 34.1 °F 32.8 °F 29.71 in Calm     95% 0.00 in 0.00 W/m2
18:14 34.1 °F 32.8 °F 29.71 in Calm     95% 0.00 in 0.00 W/m2
18:19 34.0 °F 32.7 °F 29.72 in Calm     95% 0.00 in 0.00 W/m2
18:24 33.9 °F 32.6 °F 29.71 in Calm     95% 0.00 in 0.00 W/m2
18:29 33.8 °F 32.5 °F 29.72 in Calm     95% 0.00 in 0.00 W/m2
18:34 33.8 °F 32.5 °F 29.72 in Calm     95% 0.00 in 0.00 W/m2
18:39 33.7 °F 32.4 °F 29.72 in Calm     95% 0.00 in 0.00 W/m2
18:44 33.6 °F 32.3 °F 29.72 in Calm     95% 0.00 in 0.00 W/m2
18:50 33.5 °F 32.2 °F 29.72 in Calm     95% 0.00 in 0.00 W/m2
18:55 33.5 °F 32.2 °F 29.72 in Calm     95% 0.00 in 0.00 W/m2
19:00 33.4 °F 32.1 °F 29.72 in Calm     95% 0.00 in 0.00 W/m2
19:05 33.4 °F 32.1 °F 29.72 in Calm     95% 0.00 in 0.00 W/m2
19:10 33.3 °F 32.0 °F 29.72 in Calm     95% 0.00 in 0.00 W/m2
19:15 33.3 °F 32.0 °F 29.72 in Calm     95% 0.00 in 0.00 W/m2
19:20 33.2 °F 31.9 °F 29.72 in Calm     95% 0.00 in 0.00 W/m2
19:25 33.2 °F 31.9 °F 29.72 in Calm     95% 0.00 in 0.00 W/m2
19:30 33.1 °F 31.8 °F 29.73 in Calm     95% 0.06 in 0.00 W/m2
19:35 33.1 °F 31.8 °F 29.72 in Calm     95% 0.06 in 0.00 W/m2
19:40 33.1 °F 31.8 °F 29.72 in Calm     95% 0.06 in 0.00 W/m2
19:45 33.1 °F 31.8 °F 29.72 in Calm     95% 0.06 in 0.00 W/m2
19:50 33.1 °F 31.8 °F 29.71 in Calm     95% 0.06 in 0.00 W/m2
19:55 33.0 °F 31.7 °F 29.72 in Calm     95% 0.10 in 0.00 W/m2
20:00 33.0 °F 31.7 °F 29.72 in Calm     95% 0.19 in 0.00 W/m2
20:05 33.0 °F 31.7 °F 29.72 in Calm     95% 0.25 in 0.00 W/m2
20:10 33.0 °F 31.7 °F 29.72 in Calm     95% 0.28 in 0.00 W/m2
20:15 33.0 °F 31.7 °F 29.72 in Calm     95% 0.26 in 0.00 W/m2
20:20 33.0 °F 32.0 °F 29.73 in Calm     96% 0.25 in 0.00 W/m2
20:25 33.0 °F 32.0 °F 29.73 in Calm     96% 0.24 in 0.00 W/m2
20:30 33.0 °F 31.7 °F 29.73 in Calm     95% 0.23 in 0.00 W/m2
20:35 33.0 °F 32.0 °F 29.73 in Calm     96% 0.31 in 0.00 W/m2
20:40 33.0 °F 32.0 °F 29.74 in Calm     96% 0.29 in 0.00 W/m2
20:45 33.0 °F 32.0 °F 29.74 in Calm     96% 0.23 in 0.00 W/m2
20:50 33.0 °F 32.0 °F 29.75 in Calm     96% 0.26 in 0.00 W/m2
20:55 33.0 °F 32.0 °F 29.75 in Calm     96% 0.23 in 0.00 W/m2
21:00 33.0 °F 32.0 °F 29.75 in Calm     96% 0.14 in 0.00 W/m2
21:05 33.0 °F 32.0 °F 29.75 in Calm     96% 0.27 in 0.00 W/m2
21:10 33.0 °F 32.0 °F 29.75 in Calm     96% 0.19 in 0.00 W/m2
21:15 33.0 °F 32.0 °F 29.75 in Calm     96% 0.14 in 0.00 W/m2
21:20 33.0 °F 32.0 °F 29.75 in Calm     96% 0.09 in 0.00 W/m2
21:25 33.0 °F 32.0 °F 29.75 in Calm     96% 0.15 in 0.00 W/m2
21:30 33.0 °F 32.0 °F 29.75 in Calm     96% 0.13 in 0.00 W/m2
21:35 33.0 °F 32.0 °F 29.75 in Calm     96% 0.08 in 0.00 W/m2
21:40 33.1 °F 32.1 °F 29.76 in Calm     96% 0.12 in 0.00 W/m2
21:45 33.1 °F 32.1 °F 29.76 in Calm     96% 0.09 in 0.00 W/m2
21:50 33.0 °F 32.0 °F 29.76 in Calm     96% 0.09 in 0.00 W/m2
21:55 33.1 °F 32.1 °F 29.76 in Calm     96% 0.06 in 0.00 W/m2
22:00 33.1 °F 32.1 °F 29.76 in Calm     96% 0.05 in 0.00 W/m2
22:05 33.1 °F 32.1 °F 29.77 in Calm     96% 0.05 in 0.00 W/m2
22:10 33.0 °F 32.0 °F 29.77 in Calm     96% 0.05 in 0.00 W/m2
22:15 33.0 °F 32.0 °F 29.76 in Calm     96% 0.05 in 0.00 W/m2
22:20 33.0 °F 32.0 °F 29.77 in Calm     96% 0.05 in 0.00 W/m2
22:25 33.0 °F 32.0 °F 29.76 in Calm     96% 0.04 in 0.00 W/m2
22:30 33.0 °F 32.0 °F 29.76 in Calm     96% 0.00 in 0.00 W/m2
22:35 33.0 °F 32.0 °F 29.76 in Calm     96% 0.00 in 0.00 W/m2
22:40 33.0 °F 32.0 °F 29.76 in Calm     96% 0.00 in 0.00 W/m2
22:45 33.0 °F 32.0 °F 29.76 in Calm     96% 0.00 in 0.00 W/m2
22:50 33.0 °F 32.0 °F 29.76 in Calm     96% 0.00 in 0.00 W/m2
22:55 33.0 °F 32.0 °F 29.76 in Calm     96% 0.00 in 0.00 W/m2
23:00 33.0 °F 32.0 °F 29.76 in Calm     96% 0.00 in 0.00 W/m2
23:05 33.0 °F 32.0 °F 29.76 in Calm     96% 0.00 in 0.00 W/m2
23:10 33.0 °F 32.0 °F 29.76 in Calm     96% 0.00 in 0.00 W/m2
23:15 33.0 °F 32.0 °F 29.76 in Calm     96% 0.00 in 0.00 W/m2
23:20 33.1 °F 32.1 °F 29.76 in Calm     96% 0.00 in 0.00 W/m2
23:25 33.1 °F 32.1 °F 29.76 in Calm     96% 0.00 in 0.00 W/m2
23:30 33.1 °F 32.1 °F 29.76 in Calm     96% 0.00 in 0.00 W/m2
23:35 33.1 °F 32.1 °F 29.76 in Calm     96% 0.00 in 0.00 W/m2
23:41 33.1 °F 32.1 °F 29.76 in Calm     96% 0.00 in 0.00 W/m2
23:45 33.1 °F 32.1 °F 29.76 in Calm     96% 0.00 in 0.00 W/m2
23:51 33.1 °F 32.1 °F 29.76 in Calm     96% 0.00 in 0.00 W/m2
23:56 33.1 °F 32.1 °F 29.76 in Calm     96% 0.00 in 0.00 W/m2
Foresthill Weather
 WU-history PHP script courtesy of   Juneau County Weather.
powered by Cumulus v1.9.3 (1059)
Ambient Weather VWS v14.00
Top Contact Website Map Copyright © 2007 - 2018 Foresthillweather.com Never base important decisions on this or any weather information obtained from the Internet